Time;durP1;ratioP1;P1;durP2;ratioP2;P2;SDS_P1;SDS_P2;PMS_P1;PMS_P2;Temp;Humidity;BMP_temperature;BMP_pressure;BME280_temperature;BME280_humidity;BME280_pressure;Samples;Min_cycle;Max_cycle;Signal;HPM_P1;HPM_P2
2022/09/23 00:00:36;;;;;;;11.90;7.53;;;;;;;-141.28;100.00;49246.94;5092791;28;21009;-76
2022/09/23 00:03:03;;;;;;;9.50;7.07;;;;;;;-141.28;100.00;49266.56;5109682;28;20436;-76
2022/09/23 00:05:32;;;;;;;10.30;7.50;;;;;;;-141.28;100.00;49258.69;5101454;28;20515;-74
2022/09/23 00:08:02;;;;;;;10.43;7.47;;;;;;;-141.28;100.00;49256.75;5074706;28;20877;-75
2022/09/23 00:10:31;;;;;;;9.63;7.10;;;;;;;-141.28;100.00;49262.63;5077139;28;20603;-73
2022/09/23 00:12:58;;;;;;;12.17;8.23;;;;;;;-141.28;100.00;49262.63;5073679;28;20477;-74
2022/09/23 00:15:28;;;;;;;11.63;7.63;;;;;;;-141.28;100.00;49252.81;5073225;28;20511;-75
2022/09/23 00:17:57;;;;;;;13.53;8.50;;;;;;;-141.28;100.00;49243.00;5080095;28;20430;-75
2022/09/23 00:20:24;;;;;;;11.97;8.23;;;;;;;-141.28;100.00;49219.47;5079120;28;20925;-75
2022/09/23 00:22:52;;;;;;;11.07;8.53;;;;;;;-141.28;100.00;49195.91;5099689;28;20503;-74
2022/09/23 00:25:19;;;;;;;11.60;9.00;;;;;;;-141.28;100.00;49182.19;5085933;28;20441;-74
2022/09/23 00:27:47;;;;;;;12.70;8.43;;;;;;;-141.28;100.00;49188.06;5085693;28;20445;-75
2022/09/23 00:30:14;;;;;;;14.07;8.47;;;;;;;-141.28;100.00;49160.59;5098609;28;20441;-76
2022/09/23 00:32:43;;;;;;;14.17;8.40;;;;;;;-141.28;100.00;49164.53;5092478;28;20452;-76
2022/09/23 00:35:10;;;;;;;10.17;8.03;;;;;;;-141.28;100.00;49148.81;5078516;28;20578;-75
2022/09/23 00:37:38;;;;;;;11.77;7.90;;;;;;;-141.28;100.00;49135.09;5072264;28;20443;-74
2022/09/23 00:40:11;;;;;;;12.83;8.43;;;;;;;-141.28;100.00;49117.44;5083906;28;20454;-74
2022/09/23 00:42:37;;;;;;;12.67;9.10;;;;;;;-141.28;100.00;49129.19;5105933;28;20444;-74
2022/09/23 00:45:06;;;;;;;12.87;8.43;;;;;;;-141.28;100.00;49115.47;5079804;28;20956;-75
2022/09/23 00:47:40;;;;;;;14.13;9.57;;;;;;;-141.28;100.00;49131.16;5110759;28;20523;-74
2022/09/23 00:50:15;;;;;;;13.03;8.97;;;;;;;-141.28;100.00;49133.13;5092085;28;20935;-75
2022/09/23 00:52:41;;;;;;;14.67;9.60;;;;;;;-141.28;100.00;49127.25;5077673;28;20433;-75
2022/09/23 00:55:15;;;;;;;12.47;9.37;;;;;;;-141.28;100.00;49113.50;5071873;28;20485;-75
2022/09/23 00:57:46;;;;;;;17.23;10.33;;;;;;;-141.28;100.00;49109.59;5072929;28;20451;-76
2022/09/23 01:00:15;;;;;;;13.70;8.87;;;;;;;-141.28;100.00;49082.13;5071739;28;20458;-74
2022/09/23 01:02:43;;;;;;;16.77;9.57;;;;;;;-141.28;100.00;49082.13;5072147;28;20435;-74
2022/09/23 01:05:14;;;;;;;17.17;9.77;;;;;;;-141.28;100.00;49074.25;5072091;28;20470;-75
2022/09/23 01:07:41;;;;;;;16.37;10.10;;;;;;;-141.28;100.00;49103.69;5071974;28;20435;-77
2022/09/23 01:10:10;;;;;;;13.63;9.63;;;;;;;-141.28;100.00;49093.88;5083086;28;20527;-74
2022/09/23 01:12:53;;;;;;;16.50;10.00;;;;;;;-141.28;100.00;49105.66;5072969;28;20451;-75
2022/09/23 01:15:28;;;;;;;14.97;9.50;;;;;;;-141.28;100.00;49111.53;5098861;28;20491;-74
2022/09/23 01:18:06;;;;;;;13.40;10.40;;;;;;;-141.28;100.00;49109.59;5100376;28;20910;-74
2022/09/23 01:21:02;;;;;;;16.97;10.63;;;;;;;-141.28;100.00;49115.47;5078183;28;20448;-73
2022/09/23 01:24:07;;;;;;;24.13;10.93;;;;;;;-141.28;100.00;49111.53;5046812;28;20450;-76
2022/09/23 01:26:53;;;;;;;24.70;10.00;;;;;;;-141.28;100.00;49144.91;5091600;28;20520;-74
2022/09/23 01:29:46;;;;;;;14.93;9.53;;;;;;;-141.28;100.00;49113.50;5077397;28;20446;-74
2022/09/23 01:32:22;;;;;;;17.20;9.37;;;;;;;-141.28;100.00;49121.34;5044443;28;20462;-76
2022/09/23 01:34:55;;;;;;;13.53;9.23;;;;;;;-141.28;100.00;49111.53;5082892;28;20532;-77
2022/09/23 01:37:30;;;;;;;10.63;7.43;;;;;;;-141.28;100.00;49133.13;5078713;28;20863;-74
2022/09/23 01:40:04;;;;;;;10.43;6.80;;;;;;;-141.28;100.00;49158.63;5088856;28;20449;-74
2022/09/23 01:42:38;;;;;;;13.90;8.70;;;;;;;-141.28;100.00;49199.84;5083713;28;20508;-74
2022/09/23 01:45:14;;;;;;;14.13;9.13;;;;;;;-141.28;100.00;49193.94;5088663;28;20878;-75
2022/09/23 01:47:48;;;;;;;11.93;8.73;;;;;;;-141.28;100.00;49207.69;5091715;28;20526;-74
2022/09/23 01:53:10;;;;;;;13.80;9.33;;;;;;;-141.28;100.00;49243.00;5081781;28;20808;-75
2022/09/23 01:55:42;;;;;;;14.93;9.70;;;;;;;-141.28;100.00;49246.94;5083816;28;20490;-75
2022/09/23 01:58:14;;;;;;;13.73;9.03;;;;;;;-141.28;100.00;49246.94;5074593;28;20509;-74
2022/09/23 02:00:47;;;;;;;11.43;8.53;;;;;;;-141.28;100.00;49278.31;5073784;28;20503;-77
2022/09/23 02:03:26;;;;;;;14.03;8.97;;;;;;;-141.28;100.00;49301.88;5075816;28;20443;-74
2022/09/23 02:06:01;;;;;;;17.17;9.07;;;;;;;-141.28;100.00;49335.22;5086051;28;20445;-75
2022/09/23 02:08:33;;;;;;;16.23;8.50;;;;;;;-141.28;100.00;49333.25;5085380;28;20876;-75
2022/09/23 02:11:05;;;;;;;11.90;8.83;;;;;;;-141.28;100.00;49321.50;5073602;28;20609;-74
2022/09/23 02:13:38;;;;;;;14.67;8.90;;;;;;;-141.28;100.00;49352.88;5082985;28;20452;-73
2022/09/23 02:16:12;;;;;;;11.13;8.03;;;;;;;-141.28;100.00;49343.06;5084941;28;20447;-75
2022/09/23 02:18:46;;;;;;;12.17;8.20;;;;;;;-141.28;100.00;49378.41;5084194;28;20901;-73
2022/09/23 02:21:18;;;;;;;20.47;9.23;;;;;;;-141.28;100.00;49380.34;5083119;28;20490;-74
2022/09/23 02:23:51;;;;;;;30.77;10.27;;;;;;;-141.28;100.00;49392.13;5097601;28;20518;-75
2022/09/23 02:26:23;;;;;;;14.17;8.33;;;;;;;-141.28;100.00;49409.78;5085589;28;20430;-77
2022/09/23 02:28:56;;;;;;;16.40;8.57;;;;;;;-141.28;100.00;49439.22;5076005;28;20442;-75
2022/09/23 02:31:33;;;;;;;13.97;8.50;;;;;;;-141.28;100.00;49431.38;5075051;28;20984;-75
2022/09/23 02:34:12;;;;;;;14.00;8.67;;;;;;;-141.28;100.00;49431.38;5080436;28;20550;-74
2022/09/23 02:36:49;;;;;;;13.23;9.03;;;;;;;-141.28;100.00;49452.97;5082751;28;20434;-74
2022/09/23 02:39:19;;;;;;;14.07;9.90;;;;;;;-141.28;100.00;49447.06;5075343;28;20441;-75
2022/09/23 02:41:57;;;;;;;15.87;10.00;;;;;;;-141.28;100.00;49423.53;5077577;28;20442;-74
2022/09/23 02:44:24;;;;;;;17.40;10.03;;;;;;;-141.28;100.00;49439.22;5075511;28;20450;-75
2022/09/23 02:46:52;;;;;;;15.53;9.37;;;;;;;-141.28;100.00;49439.22;5078122;28;20465;-76
2022/09/23 02:49:23;;;;;;;17.03;9.70;;;;;;;-141.28;100.00;49435.31;5074930;28;20811;-75
2022/09/23 02:51:51;;;;;;;17.60;9.63;;;;;;;-141.28;100.00;49466.69;5077366;28;20446;-74
2022/09/23 02:54:21;;;;;;;12.57;9.20;;;;;;;-141.28;100.00;49482.41;5075592;28;20473;-75
2022/09/23 02:56:49;;;;;;;21.33;10.30;;;;;;;-141.28;100.00;49443.16;5095448;28;20442;-77
2022/09/23 02:59:18;;;;;;;17.67;10.23;;;;;;;-141.28;100.00;49496.13;5083089;28;20450;-73
2022/09/23 03:01:56;;;;;;;16.83;10.13;;;;;;;-141.28;100.00;49505.94;5074777;28;20818;-74
2022/09/23 03:04:34;;;;;;;18.93;9.83;;;;;;;-141.28;100.00;49502.03;5077449;28;20450;-75
2022/09/23 03:07:09;;;;;;;24.03;11.30;;;;;;;-141.28;100.00;49533.41;5085335;28;20454;-75
2022/09/23 03:09:44;;;;;;;16.33;9.40;;;;;;;-141.28;100.00;49517.72;5094432;28;20510;-76
2022/09/23 03:12:15;;;;;;;16.83;10.40;;;;;;;-141.28;100.00;49525.56;5083419;28;20441;-74
2022/09/23 03:14:51;;;;;;;16.80;10.53;;;;;;;-141.28;100.00;49553.03;5063685;28;20480;-74
2022/09/23 03:17:25;;;;;;;16.37;10.57;;;;;;;-141.28;100.00;49541.25;5095336;28;20445;-75
2022/09/23 03:20:01;;;;;;;21.63;10.53;;;;;;;-141.28;100.00;49568.75;5075235;28;20446;-74
2022/09/23 03:22:33;;;;;;;16.90;9.90;;;;;;;-141.28;100.00;49588.34;5087090;28;21269;-75
2022/09/23 03:25:08;;;;;;;17.30;8.90;;;;;;;-141.28;100.00;49600.13;5074096;28;20435;-75
2022/09/23 03:27:36;;;;;;;11.80;7.93;;;;;;;-141.28;100.00;49604.06;5096463;28;20842;-73
2022/09/23 03:30:04;;;;;;;12.00;7.77;;;;;;;-141.28;100.00;49623.69;5101381;28;20446;-74
2022/09/23 03:32:34;;;;;;;13.43;8.30;;;;;;;-141.28;100.00;49609.94;5100393;28;20457;-75
2022/09/23 03:35:05;;;;;;;13.37;8.83;;;;;;;-141.28;100.00;49666.84;5086387;28;20480;-78
2022/09/23 03:37:36;;;;;;;16.97;9.20;;;;;;;-141.28;100.00;49686.47;5098759;28;21004;-75
2022/09/23 03:40:09;;;;;;;13.17;8.93;;;;;;;-141.28;100.00;49717.88;5112699;28;20463;-74
2022/09/23 03:42:37;;;;;;;13.80;8.93;;;;;;;-141.28;100.00;49745.34;5113405;28;20432;-76
2022/09/23 03:45:08;;;;;;;12.53;7.43;;;;;;;-141.28;100.00;49739.47;5096440;28;20507;-76
2022/09/23 03:47:38;;;;;;;12.23;7.40;;;;;;;-141.28;100.00;49855.25;5101584;28;20455;-74
2022/09/23 03:50:09;;;;;;;10.90;7.13;;;;;;;-141.28;100.00;49898.44;5108303;28;20465;-74
2022/09/23 03:52:38;;;;;;;13.03;7.67;;;;;;;-141.28;100.00;49902.34;5092028;28;20472;-75
2022/09/23 03:55:06;;;;;;;13.63;7.63;;;;;;;-141.28;100.00;49935.72;5107744;28;20483;-74
2022/09/23 03:57:33;;;;;;;12.03;8.20;;;;;;;-141.28;100.00;49933.75;5101478;28;20446;-74
2022/09/23 04:00:00;;;;;;;16.23;8.40;;;;;;;-141.28;100.00;49939.63;5094788;28;20498;-75
2022/09/23 04:02:27;;;;;;;18.87;8.37;;;;;;;-141.28;100.00;49898.44;5112457;28;20448;-75
2022/09/23 04:04:54;;;;;;;13.90;8.63;;;;;;;-141.28;100.00;49941.59;5110784;28;20953;-75
2022/09/23 04:07:24;;;;;;;14.00;9.37;;;;;;;-141.28;100.00;49953.38;5112566;28;20472;-76
2022/09/23 04:09:51;;;;;;;14.20;8.83;;;;;;;-141.28;100.00;49953.38;5096462;28;20467;-75
2022/09/23 04:12:18;;;;;;;14.90;8.67;;;;;;;-141.28;100.00;49947.50;5111358;28;20817;-76
2022/09/23 04:14:48;;;;;;;13.50;8.80;;;;;;;-141.28;100.00;49969.06;5105358;28;21044;-75
2022/09/23 04:17:15;;;;;;;14.47;9.03;;;;;;;-141.28;100.00;49963.19;5104312;28;20444;-75
2022/09/23 04:19:43;;;;;;;13.87;8.60;;;;;;;-141.28;100.00;49949.44;5092817;28;20438;-75
2022/09/23 04:22:11;;;;;;;12.73;8.93;;;;;;;-141.28;100.00;49965.16;5092021;28;20486;-73
2022/09/23 04:24:39;;;;;;;18.30;10.87;;;;;;;-141.28;100.00;49941.59;5101633;28;20437;-73
2022/09/23 04:27:06;;;;;;;25.30;11.50;;;;;;;-141.28;100.00;49921.97;5100878;28;20874;-75
2022/09/23 04:29:33;;;;;;;16.30;11.37;;;;;;;-141.28;100.00;49914.13;5092855;28;20788;-75
2022/09/23 04:32:01;;;;;;;20.67;12.40;;;;;;;-141.28;100.00;49872.91;5074132;28;20442;-74
2022/09/23 04:34:28;;;;;;;18.37;12.17;;;;;;;-141.28;100.00;49819.94;5100333;28;20986;-76
2022/09/23 04:36:55;;;;;;;18.00;11.57;;;;;;;-141.28;100.00;49812.06;5111325;28;20449;-76
2022/09/23 04:39:22;;;;;;;19.77;10.80;;;;;;;-141.28;100.00;49768.91;5102969;28;20801;-77
2022/09/23 04:41:51;;;;;;;18.27;10.60;;;;;;;-141.28;100.00;49710.03;5091311;28;20449;-75
2022/09/23 04:44:20;;;;;;;19.83;11.00;;;;;;;-141.28;100.00;49741.44;5101909;28;20861;-74
2022/09/23 04:46:47;;;;;;;17.20;10.77;;;;;;;-141.28;100.00;49717.88;5111586;28;20965;-76
2022/09/23 04:49:14;;;;;;;19.87;10.87;;;;;;;-141.28;100.00;49735.53;5110803;28;20469;-74
2022/09/23 04:51:42;;;;;;;15.77;10.63;;;;;;;-141.28;100.00;49686.47;5110278;28;20437;-74
2022/09/23 04:54:10;;;;;;;20.00;10.70;;;;;;;-141.28;100.00;49662.94;5111195;28;20470;-75
2022/09/23 04:56:38;;;;;;;19.10;11.50;;;;;;;-141.28;100.00;49694.31;5096048;28;20544;-76
2022/09/23 04:59:07;;;;;;;21.00;11.23;;;;;;;-141.28;100.00;49710.03;5111478;28;20539;-77
2022/09/23 05:01:35;;;;;;;21.43;11.33;;;;;;;-141.28;100.00;49653.13;5104124;28;20446;-74
2022/09/23 05:04:06;;;;;;;21.67;12.47;;;;;;;-141.28;100.00;49647.22;5090582;28;20458;-75
2022/09/23 05:06:35;;;;;;;27.73;13.87;;;;;;;-141.28;100.00;49651.16;5102975;28;20442;-74
2022/09/23 05:09:04;;;;;;;28.47;12.40;;;;;;;-141.28;100.00;49643.31;5102735;28;20985;-76
2022/09/23 05:11:32;;;;;;;17.60;10.53;;;;;;;-141.28;100.00;49643.31;5110407;28;20496;-75
2022/09/23 05:13:59;;;;;;;18.83;10.73;;;;;;;-141.28;100.00;49635.47;5082920;28;20457;-75
2022/09/23 05:16:28;;;;;;;19.63;9.37;;;;;;;-141.28;100.00;49623.69;5085158;28;20487;-76
2022/09/23 05:18:56;;;;;;;19.30;9.73;;;;;;;-141.28;100.00;49668.81;5107850;28;20453;-75
2022/09/23 05:21:25;;;;;;;14.70;8.30;;;;;;;-141.28;100.00;49682.56;5078358;28;20454;-74
2022/09/23 05:23:55;;;;;;;12.87;7.60;;;;;;;-141.28;100.00;49712.00;5078808;28;20913;-73
2022/09/23 05:26:25;;;;;;;15.63;7.50;;;;;;;-141.28;100.00;49731.63;5091693;28;20447;-73
2022/09/23 05:28:53;;;;;;;14.53;7.87;;;;;;;-141.28;100.00;49780.69;5092942;28;20528;-75
2022/09/23 05:31:22;;;;;;;17.97;8.57;;;;;;;-141.28;100.00;49816.00;5071280;28;20454;-76
2022/09/23 05:33:55;;;;;;;14.53;8.47;;;;;;;-141.28;100.00;49839.56;5074102;28;20524;-75
2022/09/23 05:36:22;;;;;;;17.80;7.97;;;;;;;-141.28;100.00;49849.38;5091920;28;20485;-76
2022/09/23 05:38:51;;;;;;;14.40;8.17;;;;;;;-141.28;100.00;49878.81;5097760;28;20441;-76
2022/09/23 05:41:21;;;;;;;18.70;7.83;;;;;;;-141.28;100.00;49902.34;5110471;28;20938;-75
2022/09/23 05:43:50;;;;;;;11.13;8.23;;;;;;;-141.28;100.00;49976.94;5103570;28;20522;-76
2022/09/23 05:46:19;;;;;;;19.17;8.23;;;;;;;-141.28;100.00;49973.00;5103592;28;20464;-76
2022/09/23 05:48:47;;;;;;;14.67;7.67;;;;;;;-141.28;100.00;49973.00;5099842;28;20448;-74
2022/09/23 05:51:17;;;;;;;19.37;8.43;;;;;;;-141.28;100.00;49998.50;5111084;28;20553;-75
2022/09/23 05:53:44;;;;;;;15.00;9.20;;;;;;;-141.28;100.00;50008.34;5110990;28;20546;-74
2022/09/23 05:56:12;;;;;;;11.23;8.10;;;;;;;-141.28;100.00;50004.41;5077319;28;20481;-76
2022/09/23 05:58:39;;;;;;;7.80;6.70;;;;;;;-141.28;100.00;50024.03;5071357;28;20541;-75
2022/09/23 06:01:10;;;;;;;10.00;7.37;;;;;;;-141.28;100.00;50041.69;5083565;28;20246;-75
2022/09/23 06:03:38;;;;;;;10.47;6.73;;;;;;;-141.28;100.00;50010.28;5093197;28;20532;-75
2022/09/23 06:06:05;;;;;;;9.60;6.97;;;;;;;-141.28;100.00;49929.81;5107345;28;20188;-76
2022/09/23 06:08:36;;;;;;;11.63;6.80;;;;;;;-141.28;100.00;49886.66;5093399;28;20507;-74
2022/09/23 06:11:06;;;;;;;9.83;6.53;;;;;;;-141.28;100.00;49835.63;5070223;28;20470;-74
2022/09/23 06:13:37;;;;;;;8.03;6.03;;;;;;;-141.28;100.00;49800.31;5057314;28;20295;-76
2022/09/23 06:16:04;;;;;;;8.13;5.50;;;;;;;-141.28;100.00;49814.03;5068433;28;20281;-75
2022/09/23 06:18:33;;;;;;;8.53;5.67;;;;;;;-141.28;100.00;49878.81;5041945;28;20248;-75
2022/09/23 06:21:03;;;;;;;6.53;5.40;;;;;;;-141.28;100.00;49906.28;5030638;28;20281;-76
2022/09/23 06:23:30;;;;;;;6.60;5.90;;;;;;;-141.28;100.00;49921.97;5042601;28;20283;-75
2022/09/23 06:26:02;;;;;;;6.43;5.70;;;;;;;-141.28;100.00;49949.44;5034084;28;20205;-73
2022/09/23 06:28:31;;;;;;;7.43;5.50;;;;;;;-141.28;100.00;50012.25;5032269;28;20645;-76
2022/09/23 06:30:59;;;;;;;7.63;5.67;;;;;;;-141.28;100.00;50137.88;5033285;28;20224;-73
2022/09/23 06:33:26;;;;;;;5.30;4.70;;;;;;;-141.28;100.00;50287.03;5037457;28;20632;-75
2022/09/23 06:35:56;;;;;;;6.53;5.60;;;;;;;-141.28;100.00;50451.91;5044485;28;20321;-75
2022/09/23 06:38:25;;;;;;;6.43;5.60;;;;;;;-141.28;100.00;50597.16;5031987;28;20292;-76
2022/09/23 06:40:53;;;;;;;6.50;5.63;;;;;;;-141.28;100.00;50899.47;5031294;28;20217;-75
2022/09/23 06:43:23;;;;;;;5.87;5.00;;;;;;;-141.28;100.00;51066.34;5031519;28;20289;-76
2022/09/23 06:45:52;;;;;;;6.60;5.30;;;;;;;-141.28;100.00;51319.59;5048870;28;20641;-75
2022/09/23 06:48:19;;;;;;;5.47;4.77;;;;;;;-141.28;100.00;51618.03;5070070;28;20193;-75
2022/09/23 06:50:47;;;;;;;7.87;5.10;;;;;;;-141.28;100.00;51745.69;5050149;28;20240;-76
2022/09/23 06:53:14;;;;;;;6.03;4.80;;;;;;;-141.28;100.00;51802.63;5056791;28;20293;-75
2022/09/23 06:55:42;;;;;;;6.23;4.90;;;;;;;-141.28;100.00;51837.97;5031136;28;20229;-76
2022/09/23 06:58:09;;;;;;;5.40;4.90;;;;;;;-141.28;100.00;51918.47;5034306;28;20189;-75
2022/09/23 07:00:37;;;;;;;7.97;4.90;;;;;;;-141.28;100.00;51916.50;5040016;28;20251;-74
2022/09/23 07:03:07;;;;;;;8.27;4.90;;;;;;;-141.28;100.00;51926.34;5031736;28;20197;-73
2022/09/23 07:05:33;;;;;;;5.47;4.97;;;;;;;-141.28;100.00;51920.44;5033130;28;20676;-73
2022/09/23 07:08:02;;;;;;;5.57;4.77;;;;;;;-141.28;100.00;51900.81;5066843;28;20266;-75
2022/09/23 07:10:30;;;;;;;7.93;5.07;;;;;;;-141.28;100.00;51924.38;5080441;28;20234;-75
2022/09/23 07:13:01;;;;;;;6.03;4.83;;;;;;;-141.28;100.00;51788.88;5092628;28;20195;-77
2022/09/23 07:15:29;;;;;;;6.80;4.57;;;;;;;-141.28;100.00;51720.16;5092705;28;20237;-75
2022/09/23 07:17:58;;;;;;;9.27;5.33;;;;;;;-141.28;100.00;51657.31;5086361;28;20685;-75
2022/09/23 07:20:25;;;;;;;7.13;5.17;;;;;;;-141.28;100.00;51523.78;5061239;28;20257;-75
2022/09/23 07:22:53;;;;;;;7.20;4.90;;;;;;;-141.28;100.00;51470.78;5066798;28;20644;-75
2022/09/23 07:25:21;;;;;;;5.27;4.43;;;;;;;-141.28;100.00;51417.78;5054018;28;20207;-74
2022/09/23 07:27:48;;;;;;;6.43;4.87;;;;;;;-141.28;100.00;51406.00;5067394;28;20270;-73
2022/09/23 07:30:16;;;;;;;6.87;4.67;;;;;;;-141.28;100.00;51370.66;5092180;28;20212;-75
2022/09/23 07:32:44;;;;;;;6.83;5.03;;;;;;;-141.28;100.00;51262.66;5093599;28;20200;-74
2022/09/23 07:35:13;;;;;;;8.87;4.87;;;;;;;-141.28;100.00;51237.13;5079299;28;20196;-75
2022/09/23 07:37:41;;;;;;;9.30;6.47;;;;;;;-141.28;100.00;51221.44;5077626;28;20200;-74
2022/09/23 07:40:09;;;;;;;7.07;5.10;;;;;;;-141.28;100.00;51241.06;5053341;28;20197;-74
2022/09/23 07:42:36;;;;;;;7.33;4.57;;;;;;;-141.28;100.00;51138.97;5053923;28;20197;-76
2022/09/23 07:45:08;;;;;;;6.97;5.00;;;;;;;-141.28;100.00;51115.41;5056140;28;20315;-74
2022/09/23 07:47:38;;;;;;;7.53;5.10;;;;;;;-141.28;100.00;51085.97;5064773;28;20731;-74
2022/09/23 07:50:06;;;;;;;5.17;4.63;;;;;;;-141.28;100.00;51060.44;5056859;28;20213;-74
2022/09/23 07:52:36;;;;;;;5.60;5.00;;;;;;;-141.28;100.00;51040.81;5063313;28;20203;-76
2022/09/23 07:55:04;;;;;;;7.33;4.90;;;;;;;-141.28;100.00;51115.41;5067559;28;20282;-74
2022/09/23 07:57:31;;;;;;;5.60;4.50;;;;;;;-141.28;100.00;51080.06;5053330;28;20290;-75
2022/09/23 07:59:59;;;;;;;9.17;4.70;;;;;;;-141.28;100.00;50985.84;5052982;28;20255;-75
2022/09/23 08:02:26;;;;;;;5.23;4.73;;;;;;;-141.28;100.00;50817.03;5065169;28;20200;-76
2022/09/23 08:04:54;;;;;;;9.07;5.50;;;;;;;-141.28;100.00;50742.41;5054408;28;20623;-74
2022/09/23 08:07:22;;;;;;;12.27;5.73;;;;;;;-141.28;100.00;50624.63;5064942;28;20295;-75
2022/09/23 08:09:51;;;;;;;5.90;4.97;;;;;;;-141.28;100.00;50502.94;5078658;28;20226;-75
2022/09/23 08:12:18;;;;;;;5.07;4.30;;;;;;;-141.28;100.00;50396.94;5092942;28;20195;-76
2022/09/23 08:14:45;;;;;;;5.77;4.10;;;;;;;-141.28;100.00;50334.13;5073064;28;20203;-75
2022/09/23 08:17:13;;;;;;;6.63;4.20;;;;;;;-141.28;100.00;50318.44;5073489;28;20224;-74
2022/09/23 08:19:41;;;;;;;9.07;5.00;;;;;;;-141.28;100.00;50400.88;5086217;28;20241;-74
2022/09/23 08:22:11;;;;;;;4.90;3.90;;;;;;;-141.28;100.00;50259.56;5086019;28;20227;-74
2022/09/23 08:24:37;;;;;;;6.80;4.50;;;;;;;-141.28;100.00;50204.59;5092642;28;20712;-74
2022/09/23 08:27:06;;;;;;;7.53;4.47;;;;;;;-141.28;100.00;50094.69;5077715;28;20203;-75
2022/09/23 08:29:33;;;;;;;6.63;4.40;;;;;;;-141.28;100.00;50080.94;5072549;28;20200;-74
2022/09/23 08:32:02;;;;;;;4.70;3.87;;;;;;;-141.28;100.00;50128.06;5086839;28;20327;-75
2022/09/23 08:34:31;;;;;;;5.47;4.03;;;;;;;-141.28;100.00;50092.72;5081314;28;20199;-75
2022/09/23 08:36:58;;;;;;;6.83;4.50;;;;;;;-141.28;100.00;50157.50;5081220;28;20220;-74
2022/09/23 08:39:29;;;;;;;5.50;4.37;;;;;;;-141.28;100.00;50067.22;5092596;28;20195;-76
2022/09/23 08:42:13;;;;;;;4.90;3.77;;;;;;;-141.28;100.00;50016.19;5075606;28;20192;-75
2022/09/23 08:44:49;;;;;;;5.83;4.20;;;;;;;-141.28;100.00;50078.97;5071167;28;20263;-74
2022/09/23 08:47:23;;;;;;;5.43;4.60;;;;;;;-141.28;100.00;50071.13;5079581;28;20199;-76
2022/09/23 08:50:05;;;;;;;4.60;4.20;;;;;;;-141.28;100.00;50039.72;5092395;28;20243;-76
2022/09/23 08:52:51;;;;;;;5.60;4.50;;;;;;;-141.28;100.00;50126.09;5089872;28;20195;-74
2022/09/23 08:55:28;;;;;;;4.73;3.90;;;;;;;-141.28;100.00;50308.63;5063913;28;20570;-75
2022/09/23 08:58:13;;;;;;;3.90;3.47;;;;;;;-141.28;100.00;50141.78;5075084;28;20282;-76
2022/09/23 09:00:46;;;;;;;7.30;4.03;;;;;;;-141.28;100.00;50075.06;5085144;28;20231;-76
2022/09/23 09:03:31;;;;;;;4.57;3.63;;;;;;;-141.28;100.00;50290.97;5072254;28;20673;-75
2022/09/23 09:06:03;;;;;;;9.83;3.70;;;;;;;-141.28;100.00;50500.97;5072784;28;20200;-76
2022/09/23 09:08:35;;;;;;;4.07;3.60;;;;;;;-141.28;100.00;50542.19;5084568;28;20200;-77
2022/09/23 09:11:03;;;;;;;4.00;3.33;;;;;;;-141.28;100.00;50469.56;5071704;28;20228;-73
2022/09/23 09:13:34;;;;;;;5.50;3.40;;;;;;;-141.28;100.00;50332.19;5072465;28;20611;-76
2022/09/23 09:16:25;;;;;;;3.90;3.50;;;;;;;-141.28;100.00;50320.41;5084886;28;20227;-75
2022/09/23 09:18:54;;;;;;;3.47;3.17;;;;;;;-141.28;100.00;50385.16;5057189;28;20302;-76
2022/09/23 09:21:27;;;;;;;4.90;3.27;;;;;;;-141.28;100.00;50275.25;5078636;28;20653;-76
2022/09/23 09:23:56;;;;;;;4.97;2.90;;;;;;;-141.28;100.00;50236.00;5076586;28;20200;-74
2022/09/23 09:26:25;;;;;;;2.87;2.57;;;;;;;-141.28;100.00;50078.97;5079574;28;20238;-74
2022/09/23 09:29:00;;;;;;;4.93;3.20;;;;;;;-141.28;100.00;49941.59;5075829;28;20277;-75
2022/09/23 09:31:33;;;;;;;4.43;2.90;;;;;;;-141.28;100.00;49906.28;5081660;28;20202;-76
2022/09/23 09:34:04;;;;;;;4.13;2.87;;;;;;;-141.28;100.00;49849.38;5082643;28;20196;-75
2022/09/23 09:36:39;;;;;;;5.50;3.40;;;;;;;-141.28;100.00;49827.78;5091252;28;20284;-75
2022/09/23 09:39:12;;;;;;;2.70;2.50;;;;;;;-141.28;100.00;49833.66;5090712;28;20199;-74
2022/09/23 09:41:41;;;;;;;4.93;2.80;;;;;;;-141.28;100.00;49863.09;5083112;28;20195;-74
2022/09/23 09:44:23;;;;;;;3.33;2.90;;;;;;;-141.28;100.00;50100.56;5084775;28;20196;-74
2022/09/23 09:46:55;;;;;;;3.13;2.70;;;;;;;-141.28;100.00;49617.78;5079055;28;20669;-74
2022/09/23 09:49:33;;;;;;;7.57;2.90;;;;;;;-141.28;100.00;49486.31;5101889;28;20200;-75
2022/09/23 09:52:21;;;;;;;5.23;2.57;;;;;;;-141.28;100.00;49478.47;5090899;28;20249;-75
2022/09/23 09:54:49;;;;;;;3.83;3.00;;;;;;;-141.28;100.00;49403.91;5088181;28;20198;-74
2022/09/23 09:57:29;;;;;;;4.50;2.90;;;;;;;-141.28;100.00;49384.28;5092980;28;20247;-75
2022/09/23 10:00:17;;;;;;;4.93;3.00;;;;;;;-141.28;100.00;49315.59;5091048;28;20203;-75
2022/09/23 10:02:44;;;;;;;4.20;2.80;;;;;;;-141.28;100.00;49235.16;5084934;28;20207;-74
2022/09/23 10:05:26;;;;;;;3.40;2.80;;;;;;;-141.28;100.00;49250.84;5093936;28;20226;-75
2022/09/23 10:07:53;;;;;;;2.93;2.10;;;;;;;-141.28;100.00;49286.16;5091157;28;20677;-76
2022/09/23 10:10:24;;;;;;;2.83;2.10;;;;;;;-141.28;100.00;49286.16;5085879;28;20323;-75
2022/09/23 10:12:52;;;;;;;2.27;2.07;;;;;;;-141.28;100.00;49266.56;5071242;28;20232;-75
2022/09/23 10:15:43;;;;;;;3.07;2.40;;;;;;;-141.28;100.00;49274.41;5084407;28;20541;-75
2022/09/23 10:18:19;;;;;;;5.80;2.53;;;;;;;-141.28;100.00;49241.03;5076718;28;20637;-75
2022/09/23 10:20:46;;;;;;;3.27;2.50;;;;;;;-141.28;100.00;49231.22;5075713;28;20204;-74
2022/09/23 10:23:19;;;;;;;2.40;2.10;;;;;;;-141.28;100.00;49246.94;5101589;28;20203;-74
2022/09/23 10:25:57;;;;;;;2.70;2.37;;;;;;;-141.28;100.00;49254.78;5093416;28;20252;-73
2022/09/23 10:28:37;;;;;;;2.53;2.33;;;;;;;-141.28;100.00;49235.16;5081020;28;20628;-75
2022/09/23 10:31:08;;;;;;;2.30;2.10;;;;;;;-141.28;100.00;49180.22;5078114;28;20191;-75
2022/09/23 10:33:43;;;;;;;2.10;1.90;;;;;;;-141.28;100.00;49186.09;5085575;28;20380;-75
2022/09/23 10:36:17;;;;;;;1.80;1.70;;;;;;;-141.28;100.00;49266.56;5100270;28;20191;-75
2022/09/23 10:38:49;;;;;;;2.07;1.70;;;;;;;-141.28;100.00;49278.31;5093785;28;20191;-75
2022/09/23 10:47:27;;;;;;;2.60;2.20;;;;;;;-141.28;100.00;49233.19;5091884;28;20266;-75
2022/09/23 10:50:08;;;;;;;2.43;2.17;;;;;;;-141.28;100.00;49225.34;5105508;28;20235;-74
2022/09/23 10:52:54;;;;;;;3.37;2.33;;;;;;;-141.28;99.37;49211.59;5104093;28;20213;-74
2022/09/23 10:55:32;;;;;;;2.87;2.40;;;;;;;-141.28;99.42;49201.81;5094374;28;20196;-75
2022/09/23 10:58:24;;;;;;;3.50;2.03;;;;;;;-141.28;99.62;49278.31;5093970;28;20226;-74
2022/09/23 11:01:06;;;;;;;2.07;1.87;;;;;;;-141.28;100.00;49325.41;5110466;28;20590;-74
2022/09/23 11:04:00;;;;;;;2.13;1.70;;;;;;;-141.28;100.00;49317.56;5114634;28;20258;-73
2022/09/23 11:06:37;;;;;;;2.07;1.90;;;;;;;-141.28;100.00;49294.03;5077977;28;20686;-74
2022/09/23 11:09:24;;;;;;;2.60;2.20;;;;;;;-141.28;100.00;49295.97;5073627;28;20200;-75
2022/09/23 11:12:03;;;;;;;2.53;2.00;;;;;;;-141.28;100.00;49321.50;5057792;28;20204;-75
2022/09/23 11:14:52;;;;;;;1.97;1.87;;;;;;;-141.28;100.00;49329.34;5087888;28;20269;-75
2022/09/23 11:20:51;;;;;;;2.13;1.50;;;;;;;-141.28;80.36;49268.50;5092979;28;20203;-76
2022/09/23 11:23:48;;;;;;;1.90;1.80;;;;;;;-141.28;78.54;49239.09;5073791;28;20704;-75
2022/09/23 11:26:26;;;;;;;2.50;1.93;;;;;;;-141.28;78.12;49266.56;5070143;28;20192;-76
2022/09/23 11:29:18;;;;;;;4.03;2.20;;;;;;;-141.28;80.23;49256.75;5073927;28;20207;-75
2022/09/23 11:31:54;;;;;;;2.07;1.80;;;;;;;-141.28;69.26;49211.59;5074045;28;20234;-75
2022/09/23 11:34:48;;;;;;;2.90;1.77;;;;;;;-141.28;68.30;49193.94;5073818;28;20643;-74
2022/09/23 11:37:21;;;;;;;2.90;1.60;;;;;;;-141.28;65.57;49176.28;5074171;28;20216;-74